Time;durP1;ratioP1;P1;durP2;ratioP2;P2;SDS_P1;SDS_P2;PMS_P1;PMS_P2;Temp;Humidity;BMP_temperature;BMP_pressure;BME280_temperature;BME280_humidity;BME280_pressure;Samples;Min_cycle;Max_cycle;Signal;HPM_P1;HPM_P2
2022/03/24 00:00:55;;;;;;;44.00;31.02;;;8.60;80.50;;;;;;6119589;23;98462;-70
2022/03/24 00:03:22;;;;;;;43.53;30.77;;;8.60;80.60;;;;;;6119895;23;98566;-69
2022/03/24 00:05:52;;;;;;;50.53;31.45;;;8.60;80.70;;;;;;6094776;23;102379;-69
2022/03/24 00:08:20;;;;;;;46.47;30.48;;;8.50;80.90;;;;;;6119498;23;99721;-69
2022/03/24 00:10:47;;;;;;;49.03;33.33;;;8.50;80.80;;;;;;6121256;22;99186;-69
2022/03/24 00:13:15;;;;;;;45.80;31.92;;;8.50;81.00;;;;;;6121336;22;98474;-69
2022/03/24 00:15:42;;;;;;;47.60;31.75;;;8.50;81.00;;;;;;6119192;23;99107;-69
2022/03/24 00:18:09;;;;;;;48.95;32.28;;;8.50;81.10;;;;;;6094530;23;101496;-69
2022/03/24 00:20:37;;;;;;;52.55;34.30;;;8.40;81.20;;;;;;6094491;23;98577;-69
2022/03/24 00:23:04;;;;;;;46.60;31.48;;;8.40;81.40;;;;;;6120107;23;98341;-69
2022/03/24 00:25:31;;;;;;;47.78;31.45;;;8.40;81.40;;;;;;6119076;23;101667;-69
2022/03/24 00:27:58;;;;;;;50.05;31.00;;;8.40;81.20;;;;;;6120545;22;99136;-69
2022/03/24 00:30:25;;;;;;;45.70;31.60;;;8.40;81.30;;;;;;6094760;23;99183;-69
2022/03/24 00:32:52;;;;;;;47.05;32.63;;;8.30;81.50;;;;;;6094658;23;98538;-70
2022/03/24 00:35:21;;;;;;;44.72;30.98;;;8.30;81.70;;;;;;6118910;23;101896;-70
2022/03/24 00:37:48;;;;;;;45.85;31.95;;;8.20;81.90;;;;;;6120458;22;99093;-69
2022/03/24 00:40:16;;;;;;;51.58;31.80;;;8.20;82.20;;;;;;6119958;22;98432;-69
2022/03/24 00:42:45;;;;;;;49.70;32.63;;;8.20;82.90;;;;;;6120939;22;98544;-69
2022/03/24 00:45:13;;;;;;;48.30;32.45;;;8.10;82.40;;;;;;6118945;23;102269;-69
2022/03/24 00:47:42;;;;;;;51.10;32.92;;;8.10;82.40;;;;;;6119122;23;101708;-69
2022/03/24 00:50:10;;;;;;;46.67;32.40;;;8.10;82.70;;;;;;6119013;23;98636;-69
2022/03/24 00:52:41;;;;;;;49.33;31.95;;;8.00;82.80;;;;;;6094864;23;98539;-69
2022/03/24 00:55:11;;;;;;;46.13;31.63;;;8.00;82.80;;;;;;6118234;23;102792;-69
2022/03/24 00:57:42;;;;;;;46.67;31.15;;;7.90;83.00;;;;;;6120346;23;99896;-69
2022/03/24 01:00:15;;;;;;;48.42;31.08;;;7.90;82.90;;;;;;6094803;23;98639;-69
2022/03/24 01:02:47;;;;;;;51.80;31.80;;;7.90;83.00;;;;;;6119474;23;98538;-69
2022/03/24 01:05:16;;;;;;;50.30;31.65;;;7.80;82.90;;;;;;6094515;23;101809;-69
2022/03/24 01:07:44;;;;;;;49.40;33.35;;;7.80;83.40;;;;;;6118764;23;101511;-69
2022/03/24 01:10:22;;;;;;;52.38;32.40;;;7.80;83.30;;;;;;6094521;23;98461;-69
2022/03/24 01:12:49;;;;;;;48.88;33.00;;;7.80;83.40;;;;;;6095077;23;97656;-69
2022/03/24 01:15:45;;;;;;;49.92;32.08;;;7.70;84.00;;;;;;6120733;22;99302;-69
2022/03/24 01:18:08;;;;;;;55.88;33.40;;;7.70;83.60;;;;;;6118686;23;101581;-69
2022/03/24 01:20:35;;;;;;;54.95;34.67;;;7.60;83.80;;;;;;6093916;23;99161;-69
2022/03/24 01:23:02;;;;;;;56.60;34.92;;;7.60;83.70;;;;;;6118947;23;98535;-69
2022/03/24 01:25:29;;;;;;;53.03;33.67;;;7.60;83.90;;;;;;6118858;23;101719;-69
2022/03/24 01:27:56;;;;;;;52.88;33.47;;;7.60;83.90;;;;;;6120332;22;99078;-69
2022/03/24 01:30:23;;;;;;;51.85;35.05;;;7.50;84.20;;;;;;6120833;22;98432;-69
2022/03/24 01:32:51;;;;;;;56.92;35.17;;;7.50;84.30;;;;;;6119117;23;98374;-69
2022/03/24 01:35:18;;;;;;;56.03;34.65;;;7.50;84.20;;;;;;6118585;23;101791;-69
2022/03/24 01:37:45;;;;;;;52.33;34.22;;;7.50;84.20;;;;;;6094150;23;101573;-69
2022/03/24 01:40:13;;;;;;;52.75;32.92;;;7.50;84.20;;;;;;6120843;23;98408;-69
2022/03/24 01:42:40;;;;;;;51.40;33.35;;;7.50;84.20;;;;;;6094194;23;98493;-69
2022/03/24 01:45:09;;;;;;;49.85;33.97;;;7.40;84.30;;;;;;6118069;23;100040;-69
2022/03/24 01:47:36;;;;;;;55.13;32.75;;;7.40;84.60;;;;;;6118412;23;102338;-69
2022/03/24 01:50:06;;;;;;;53.75;33.58;;;7.40;85.00;;;;;;6119553;23;98507;-69
2022/03/24 01:52:33;;;;;;;52.80;34.38;;;7.40;85.20;;;;;;6120751;22;98434;-69
2022/03/24 01:55:01;;;;;;;56.03;35.83;;;7.30;85.00;;;;;;6118192;23;101638;-69
2022/03/24 01:57:29;;;;;;;56.60;34.50;;;7.30;84.90;;;;;;6118403;23;100315;-69
2022/03/24 01:59:58;;;;;;;55.05;35.17;;;7.30;84.80;;;;;;6118427;23;98566;-69
2022/03/24 02:02:39;;;;;;;57.72;34.05;;;7.30;84.60;;;;;;6119255;23;98608;-69
2022/03/24 02:06:00;;;;;;;52.63;33.22;;;7.20;84.60;;;;;;6097825;23;101855;-69
2022/03/24 02:08:56;;;;;;;53.08;32.72;;;7.20;85.20;;;;;;6119918;23;101788;-69
2022/03/24 02:11:29;;;;;;;56.47;35.13;;;7.20;85.30;;;;;;6119145;23;99161;-69
2022/03/24 02:13:58;;;;;;;60.63;33.65;;;7.10;85.30;;;;;;6119679;23;98652;-69
2022/03/24 02:16:48;;;;;;;53.78;34.97;;;7.00;85.10;;;;;;6095157;23;101710;-69
2022/03/24 02:23:44;;;;;;;58.08;34.13;;;7.00;85.50;;;;;;6062429;23;98603;-69
2022/03/24 02:26:12;;;;;;;56.60;34.58;;;6.90;85.70;;;;;;6121604;22;98341;-69
2022/03/24 02:28:40;;;;;;;59.42;37.05;;;6.90;85.70;;;;;;6121455;22;99253;-70
2022/03/24 02:31:09;;;;;;;59.40;35.20;;;6.90;85.70;;;;;;6119555;23;101634;-69
2022/03/24 02:33:36;;;;;;;62.20;37.78;;;6.80;85.70;;;;;;6121747;23;98356;-69
2022/03/24 02:36:04;;;;;;;56.67;35.17;;;6.80;85.90;;;;;;6119900;23;98587;-69
2022/03/24 02:38:32;;;;;;;62.45;36.45;;;6.80;86.10;;;;;;6121009;22;100092;-69
2022/03/24 02:40:59;;;;;;;57.03;37.20;;;6.80;86.00;;;;;;6120894;22;99959;-69
2022/03/24 02:43:26;;;;;;;64.60;36.85;;;6.70;86.10;;;;;;6121771;23;99444;-69
2022/03/24 02:45:53;;;;;;;60.83;36.55;;;6.70;86.10;;;;;;6121399;22;98479;-69
2022/03/24 02:48:23;;;;;;;61.42;36.17;;;6.70;86.20;;;;;;6121233;22;99183;-69
2022/03/24 02:50:50;;;;;;;59.97;36.22;;;6.70;86.20;;;;;;6119597;23;99052;-69
2022/03/24 02:53:17;;;;;;;58.63;37.55;;;6.70;86.30;;;;;;6120141;23;98576;-69
2022/03/24 02:55:44;;;;;;;58.35;36.38;;;6.70;86.40;;;;;;6095732;23;97885;-69
2022/03/24 02:58:11;;;;;;;61.20;38.15;;;6.60;86.20;;;;;;6094589;23;101673;-69
2022/03/24 03:00:39;;;;;;;58.42;37.47;;;6.70;86.20;;;;;;6119726;23;99037;-69
2022/03/24 03:03:06;;;;;;;60.28;38.63;;;6.60;86.20;;;;;;6119513;23;99130;-70
2022/03/24 03:05:35;;;;;;;60.30;38.17;;;6.60;86.30;;;;;;6119370;23;103880;-69
2022/03/24 03:08:02;;;;;;;66.55;38.67;;;6.60;86.40;;;;;;6070618;23;101683;-69
2022/03/24 03:10:29;;;;;;;68.50;39.75;;;6.60;86.10;;;;;;6119735;23;98720;-69
2022/03/24 03:12:57;;;;;;;59.47;37.70;;;6.60;86.10;;;;;;6121309;23;98482;-69
2022/03/24 03:15:24;;;;;;;62.95;39.03;;;6.60;86.10;;;;;;6120155;23;98500;-69
2022/03/24 03:17:51;;;;;;;64.90;39.10;;;6.50;86.30;;;;;;6120836;22;99229;-69
2022/03/24 03:20:18;;;;;;;65.05;37.78;;;6.50;87.00;;;;;;6121211;22;98918;-69
2022/03/24 03:22:45;;;;;;;57.45;37.58;;;6.50;86.20;;;;;;6121554;23;98432;-70
2022/03/24 03:25:13;;;;;;;64.00;38.53;;;6.50;86.20;;;;;;6121300;23;98447;-69
2022/03/24 03:27:40;;;;;;;62.33;39.88;;;6.50;86.30;;;;;;6120613;22;99962;-69
2022/03/24 03:30:08;;;;;;;68.05;40.58;;;6.50;86.40;;;;;;6094579;23;102320;-69
2022/03/24 03:32:35;;;;;;;62.35;38.15;;;6.50;86.40;;;;;;6120016;23;98431;-69
2022/03/24 03:35:02;;;;;;;60.35;38.45;;;6.50;86.30;;;;;;6121289;22;98459;-69
2022/03/24 03:37:29;;;;;;;61.97;39.17;;;6.50;86.50;;;;;;6121007;22;99179;-69
2022/03/24 03:39:56;;;;;;;63.92;39.03;;;6.50;86.30;;;;;;6094994;23;99304;-69
2022/03/24 03:42:24;;;;;;;61.28;36.95;;;6.50;86.50;;;;;;6121442;22;98408;-69
2022/03/24 03:44:51;;;;;;;64.85;38.38;;;6.50;86.50;;;;;;6120072;23;97757;-69
2022/03/24 03:47:18;;;;;;;64.68;39.22;;;6.40;86.50;;;;;;6094423;23;101663;-69
2022/03/24 03:49:45;;;;;;;60.97;39.00;;;6.50;86.50;;;;;;6120640;22;98980;-69
2022/03/24 03:52:30;;;;;;;64.28;39.35;;;6.40;86.60;;;;;;6119401;23;99220;-69
2022/03/24 03:54:57;;;;;;;62.25;38.13;;;6.40;86.40;;;;;;6121385;22;98479;-69
2022/03/24 03:57:24;;;;;;;58.55;36.95;;;6.40;86.60;;;;;;6119238;23;99286;-69
2022/03/24 03:59:51;;;;;;;66.15;38.10;;;6.30;86.70;;;;;;6094147;23;108953;-69
2022/03/24 04:02:18;;;;;;;65.60;38.05;;;6.40;87.60;;;;;;6119062;23;98585;-69
2022/03/24 04:04:46;;;;;;;61.53;40.38;;;6.30;87.20;;;;;;6120883;23;98458;-69
2022/03/24 04:07:13;;;;;;;62.15;37.80;;;6.30;87.30;;;;;;6093690;23;101921;-69
2022/03/24 04:09:39;;;;;;;64.32;38.28;;;6.20;87.30;;;;;;6121326;22;99077;-69
2022/03/24 04:12:07;;;;;;;63.53;38.33;;;6.20;87.30;;;;;;6119283;23;98510;-69
2022/03/24 04:14:34;;;;;;;63.70;38.65;;;6.20;87.30;;;;;;6094912;23;98494;-70
2022/03/24 04:17:01;;;;;;;67.25;40.85;;;6.20;87.30;;;;;;6094076;23;102506;-69
2022/03/24 04:19:28;;;;;;;67.03;39.72;;;6.20;87.40;;;;;;6120840;23;99595;-69
2022/03/24 04:21:56;;;;;;;68.65;39.85;;;6.20;87.50;;;;;;6120937;23;98373;-70
2022/03/24 04:24:23;;;;;;;69.03;41.03;;;6.10;87.60;;;;;;6119120;23;99024;-69
2022/03/24 04:26:50;;;;;;;68.80;42.20;;;6.10;87.50;;;;;;6120935;23;99264;-69
2022/03/24 04:29:17;;;;;;;65.45;40.90;;;6.10;87.70;;;;;;6118397;23;99047;-69
2022/03/24 04:31:44;;;;;;;63.50;38.55;;;6.10;87.70;;;;;;6119566;23;98428;-70
2022/03/24 04:34:11;;;;;;;64.53;39.42;;;6.10;87.60;;;;;;6119940;23;97840;-70
2022/03/24 04:36:38;;;;;;;70.90;39.38;;;6.00;87.60;;;;;;6119373;23;99305;-70
2022/03/24 04:39:05;;;;;;;64.18;39.40;;;6.10;87.60;;;;;;6094431;23;101581;-69
2022/03/24 04:41:31;;;;;;;69.22;40.63;;;6.00;87.70;;;;;;6120528;22;99270;-69
2022/03/24 04:43:58;;;;;;;67.95;39.35;;;6.00;87.90;;;;;;6095394;23;98545;-69
2022/03/24 04:46:25;;;;;;;71.75;40.25;;;6.00;88.10;;;;;;6120711;22;99269;-69
2022/03/24 04:48:53;;;;;;;68.97;38.70;;;6.00;88.10;;;;;;6120828;23;99032;-69
2022/03/24 04:51:20;;;;;;;65.75;38.65;;;5.90;88.10;;;;;;6118884;23;99497;-69
2022/03/24 04:53:46;;;;;;;75.07;42.38;;;5.90;88.20;;;;;;6119840;23;98632;-69
2022/03/24 04:56:13;;;;;;;62.00;39.05;;;5.90;88.20;;;;;;6119055;23;99256;-70
2022/03/24 04:58:40;;;;;;;65.50;38.92;;;5.80;88.50;;;;;;6070416;23;101527;-69
2022/03/24 05:01:07;;;;;;;64.78;38.65;;;5.90;88.50;;;;;;6119352;23;98632;-69
2022/03/24 05:03:34;;;;;;;66.65;39.72;;;5.90;88.50;;;;;;6121224;23;98475;-69
2022/03/24 05:06:01;;;;;;;68.25;39.80;;;5.80;88.60;;;;;;6118409;23;102399;-69
2022/03/24 05:08:28;;;;;;;61.88;37.97;;;5.80;88.80;;;;;;6094159;23;102292;-69
2022/03/24 05:10:56;;;;;;;68.22;38.88;;;5.80;89.00;;;;;;6121090;23;98398;-69
2022/03/24 05:13:23;;;;;;;64.35;38.08;;;5.80;89.00;;;;;;6120149;23;100920;-69
2022/03/24 05:15:49;;;;;;;67.78;37.30;;;5.70;89.10;;;;;;6120626;23;99198;-70
2022/03/24 05:18:16;;;;;;;66.55;38.88;;;5.70;89.30;;;;;;6120250;23;98952;-69
2022/03/24 05:20:43;;;;;;;67.32;38.42;;;5.70;89.30;;;;;;6094581;23;98547;-69
2022/03/24 05:23:10;;;;;;;69.57;40.58;;;5.70;89.30;;;;;;6121364;23;98161;-69
2022/03/24 05:25:37;;;;;;;66.47;41.08;;;5.70;89.40;;;;;;6120438;23;99266;-69
2022/03/24 05:28:04;;;;;;;71.25;38.70;;;5.70;89.30;;;;;;6120554;22;99080;-69
2022/03/24 05:30:32;;;;;;;65.72;40.10;;;5.70;89.10;;;;;;6094164;23;99278;-69
2022/03/24 05:32:59;;;;;;;69.90;42.47;;;5.70;89.10;;;;;;6094097;23;105216;-70
2022/03/24 05:35:26;;;;;;;68.00;40.33;;;5.70;89.10;;;;;;6118395;23;102125;-69
2022/03/24 05:37:53;;;;;;;71.82;40.13;;;5.70;89.20;;;;;;6120355;23;99062;-69
2022/03/24 05:40:20;;;;;;;68.25;39.58;;;5.70;89.20;;;;;;6120213;22;98442;-69
2022/03/24 05:42:47;;;;;;;68.80;40.22;;;5.70;89.40;;;;;;6094299;23;98572;-69
2022/03/24 05:45:14;;;;;;;65.95;40.40;;;5.70;89.50;;;;;;6118636;23;99315;-69
2022/03/24 05:47:42;;;;;;;65.93;39.50;;;5.70;89.40;;;;;;6120735;22;99032;-69
2022/03/24 05:50:12;;;;;;;66.40;37.72;;;5.70;89.30;;;;;;6119037;23;98581;-69
2022/03/24 05:53:03;;;;;;;63.60;37.30;;;5.80;89.10;;;;;;6099389;23;100030;-69
2022/03/24 05:55:30;;;;;;;64.30;38.03;;;5.80;89.00;;;;;;6119419;23;99926;-69
2022/03/24 05:57:57;;;;;;;66.35;40.40;;;5.80;89.00;;;;;;6118424;23;102321;-69
2022/03/24 06:00:24;;;;;;;65.78;39.55;;;5.90;88.90;;;;;;6120079;23;98533;-69
2022/03/24 06:02:53;;;;;;;65.78;37.70;;;5.90;88.80;;;;;;6118588;23;98487;-70
2022/03/24 06:05:22;;;;;;;63.03;37.83;;;6.00;88.90;;;;;;6093095;23;100163;-69
2022/03/24 06:07:49;;;;;;;62.63;38.03;;;6.10;88.70;;;;;;6093770;23;100088;-69
2022/03/24 06:10:16;;;;;;;55.85;37.70;;;6.30;88.40;;;;;;6120177;23;98405;-69
2022/03/24 06:12:47;;;;;;;55.28;35.78;;;6.50;88.00;;;;;;6119425;23;97757;-69
2022/03/24 06:15:14;;;;;;;57.22;38.33;;;6.70;87.70;;;;;;6119994;23;99155;-69
2022/03/24 06:17:41;;;;;;;58.70;37.42;;;6.90;87.30;;;;;;6118177;23;98938;-69
2022/03/24 06:20:09;;;;;;;61.17;38.60;;;7.20;86.70;;;;;;6118736;23;99303;-69
2022/03/24 06:22:42;;;;;;;60.25;39.65;;;7.40;85.60;;;;;;6120177;22;98840;-69
2022/03/24 06:25:09;;;;;;;60.60;40.30;;;7.70;85.20;;;;;;6118316;23;99112;-70
2022/03/24 06:27:36;;;;;;;58.45;39.83;;;7.90;84.40;;;;;;6092920;23;106290;-70
2022/03/24 06:30:05;;;;;;;60.00;41.45;;;8.10;83.20;;;;;;6094033;23;98573;-70
2022/03/24 06:32:32;;;;;;;55.55;38.85;;;8.30;82.60;;;;;;6094450;23;98471;-70
2022/03/24 06:35:02;;;;;;;53.80;39.70;;;8.70;82.20;;;;;;6119933;22;99435;-69
2022/03/24 06:37:29;;;;;;;58.60;40.75;;;8.90;81.30;;;;;;6118566;23;99050;-69
2022/03/24 06:39:56;;;;;;;56.78;41.50;;;9.10;80.40;;;;;;6120341;23;98747;-70
2022/03/24 06:42:23;;;;;;;61.25;42.60;;;9.40;79.70;;;;;;6118092;23;98600;-70
2022/03/24 06:44:50;;;;;;;55.50;43.03;;;9.70;78.50;;;;;;6119375;23;100044;-70
2022/03/24 06:47:17;;;;;;;52.75;41.13;;;10.10;77.80;;;;;;6118348;23;99850;-70
2022/03/24 06:49:44;;;;;;;51.38;41.10;;;10.50;76.00;;;;;;6118085;23;98860;-69
2022/03/24 06:52:11;;;;;;;58.30;42.05;;;10.70;75.30;;;;;;6119482;23;98413;-69
2022/03/24 06:54:38;;;;;;;59.28;44.40;;;10.90;74.60;;;;;;6120790;23;99235;-69
2022/03/24 06:57:05;;;;;;;56.55;44.00;;;11.10;74.00;;;;;;6121182;23;99101;-69
2022/03/24 06:59:32;;;;;;;56.50;43.10;;;11.10;73.60;;;;;;6120239;23;99005;-69
2022/03/24 07:02:02;;;;;;;55.03;43.58;;;11.20;73.40;;;;;;6120209;23;97764;-69
2022/03/24 07:04:29;;;;;;;57.92;44.25;;;11.30;72.60;;;;;;6120918;22;99091;-70
2022/03/24 07:06:56;;;;;;;53.60;41.45;;;11.40;72.20;;;;;;6121203;22;98854;-70
2022/03/24 07:09:23;;;;;;;56.20;43.67;;;11.50;72.10;;;;;;6120999;22;99081;-70
2022/03/24 07:11:50;;;;;;;54.63;42.13;;;11.60;72.00;;;;;;6121516;23;98510;-70
2022/03/24 07:14:17;;;;;;;54.22;41.85;;;11.80;71.40;;;;;;6119090;23;109353;-70
2022/03/24 07:16:44;;;;;;;53.00;40.78;;;11.80;70.90;;;;;;6121042;22;99202;-70
2022/03/24 07:19:12;;;;;;;55.22;42.65;;;11.80;71.00;;;;;;6121584;22;98533;-70
2022/03/24 07:21:39;;;;;;;54.97;42.30;;;11.80;71.00;;;;;;6119761;23;98886;-70
2022/03/24 07:24:06;;;;;;;54.67;41.75;;;11.80;71.10;;;;;;6119535;23;99356;-70
2022/03/24 07:26:34;;;;;;;53.33;40.92;;;12.00;71.60;;;;;;6119458;23;101620;-70
2022/03/24 07:29:01;;;;;;;54.78;40.25;;;12.20;71.20;;;;;;6119751;23;99244;-70
2022/03/24 07:31:28;;;;;;;49.67;40.65;;;12.60;70.40;;;;;;6121396;22;98463;-72
2022/03/24 07:33:58;;;;;;;53.88;43.53;;;13.00;69.70;;;;;;6118851;23;101461;-72
2022/03/24 07:36:25;;;;;;;48.95;39.20;;;13.30;68.30;;;;;;6120810;22;99866;-72
2022/03/24 07:38:55;;;;;;;46.42;40.30;;;13.60;66.30;;;;;;6119502;23;98586;-72
2022/03/24 07:41:22;;;;;;;49.08;39.67;;;13.90;64.90;;;;;;6119444;23;98575;-72
2022/03/24 07:43:49;;;;;;;45.00;39.65;;;14.40;63.60;;;;;;6118845;23;102033;-72
2022/03/24 07:46:17;;;;;;;44.25;38.28;;;14.80;62.40;;;;;;6119245;23;101649;-72
2022/03/24 07:48:48;;;;;;;45.85;40.25;;;15.30;60.80;;;;;;6119796;23;99179;-72
2022/03/24 07:51:17;;;;;;;45.53;40.40;;;15.70;60.00;;;;;;6119931;23;98425;-73
2022/03/24 07:53:54;;;;;;;48.55;42.85;;;16.10;59.40;;;;;;6120297;22;99678;-73
2022/03/24 07:56:25;;;;;;;48.35;43.13;;;16.60;58.70;;;;;;6119377;23;101583;-73
2022/03/24 07:58:54;;;;;;;50.72;45.30;;;17.00;56.50;;;;;;6118890;23;99257;-73
2022/03/24 08:01:32;;;;;;;47.92;43.10;;;17.50;55.40;;;;;;6119414;23;98648;-73
2022/03/24 08:04:01;;;;;;;46.28;41.50;;;17.90;52.90;;;;;;6119468;23;99078;-73
2022/03/24 08:06:29;;;;;;;48.17;43.20;;;18.30;51.30;;;;;;6119620;23;99084;-73
2022/03/24 08:08:57;;;;;;;49.50;44.95;;;18.80;49.60;;;;;;6119756;23;98449;-73
2022/03/24 08:11:25;;;;;;;46.22;41.92;;;19.10;48.60;;;;;;6119735;23;98530;-73
2022/03/24 08:13:54;;;;;;;47.08;42.67;;;19.60;47.30;;;;;;6094113;23;101926;-73
2022/03/24 08:16:22;;;;;;;47.53;42.85;;;20.10;46.10;;;;;;6121329;22;98937;-73
2022/03/24 08:18:50;;;;;;;44.72;39.97;;;20.50;44.70;;;;;;6070592;23;98578;-73
2022/03/24 08:21:17;;;;;;;42.30;38.13;;;20.80;42.90;;;;;;6119673;23;98552;-73
2022/03/24 08:23:44;;;;;;;45.50;41.38;;;21.00;42.00;;;;;;6093779;23;102529;-73
2022/03/24 08:26:11;;;;;;;45.95;41.03;;;21.30;41.60;;;;;;6119204;23;99536;-73
2022/03/24 08:28:45;;;;;;;41.88;37.83;;;21.50;40.80;;;;;;6121035;22;98455;-73
2022/03/24 08:31:14;;;;;;;42.22;37.95;;;21.60;39.40;;;;;;6121276;23;98468;-73
2022/03/24 08:33:41;;;;;;;41.78;37.58;;;21.70;39.70;;;;;;6118918;23;99298;-73
2022/03/24 08:36:09;;;;;;;39.58;35.50;;;21.70;38.90;;;;;;6120746;22;98881;-73
2022/03/24 08:38:36;;;;;;;38.25;34.40;;;21.70;38.80;;;;;;6120840;22;98354;-73
2022/03/24 08:41:03;;;;;;;40.53;36.10;;;21.70;38.40;;;;;;6095530;23;97978;-73
2022/03/24 08:43:33;;;;;;;41.33;36.95;;;21.40;38.90;;;;;;6118874;23;101803;-73
2022/03/24 08:46:06;;;;;;;39.42;35.10;;;21.20;39.20;;;;;;6119339;23;99094;-73
2022/03/24 08:48:33;;;;;;;39.83;34.85;;;20.80;39.90;;;;;;6119323;23;99252;-73
2022/03/24 08:51:01;;;;;;;38.40;32.97;;;20.30;39.90;;;;;;6118620;23;98643;-73
2022/03/24 08:53:28;;;;;;;41.20;34.20;;;19.90;40.60;;;;;;6120991;22;99261;-73
2022/03/24 08:55:55;;;;;;;43.55;34.30;;;19.40;41.70;;;;;;6118699;23;99074;-73
2022/03/24 08:58:24;;;;;;;39.80;34.33;;;19.00;43.00;;;;;;6119165;23;98606;-73
2022/03/24 09:00:51;;;;;;;38.42;32.50;;;18.60;44.00;;;;;;6119246;23;98547;-73
2022/03/24 09:03:30;;;;;;;39.88;32.20;;;18.30;44.30;;;;;;6120505;23;99236;-73
2022/03/24 09:05:57;;;;;;;37.75;31.02;;;18.00;44.70;;;;;;6119339;23;99026;-73
2022/03/24 09:08:26;;;;;;;39.33;31.75;;;17.70;45.90;;;;;;6119733;23;98511;-73
2022/03/24 09:10:56;;;;;;;39.00;31.20;;;17.40;46.80;;;;;;6121115;22;98413;-73
2022/03/24 09:13:26;;;;;;;38.50;30.48;;;17.20;47.60;;;;;;6118576;23;99215;-73
2022/03/24 09:15:53;;;;;;;38.38;29.08;;;17.10;47.90;;;;;;6117768;23;112532;-73
2022/03/24 09:18:20;;;;;;;36.97;29.30;;;16.90;48.40;;;;;;6094980;23;98895;-73
2022/03/24 09:20:48;;;;;;;41.08;28.65;;;16.70;48.90;;;;;;6120570;23;98445;-73
2022/03/24 09:23:15;;;;;;;37.63;28.48;;;16.60;48.70;;;;;;6118951;23;99764;-73
2022/03/24 09:25:50;;;;;;;37.97;28.80;;;16.50;49.40;;;;;;6120324;22;99058;-73
2022/03/24 09:28:17;;;;;;;38.08;28.67;;;16.50;49.70;;;;;;6118955;23;98437;-73
2022/03/24 09:30:50;;;;;;;38.83;29.25;;;16.40;50.10;;;;;;6119862;23;98191;-73
2022/03/24 09:33:18;;;;;;;38.78;28.10;;;16.40;50.40;;;;;;6118889;23;99291;-73
2022/03/24 09:36:14;;;;;;;38.63;28.20;;;16.30;51.00;;;;;;6119968;23;100820;-73
2022/03/24 09:38:44;;;;;;;43.97;28.77;;;16.20;51.90;;;;;;6120125;23;99253;-72
2022/03/24 09:41:12;;;;;;;40.05;28.38;;;16.10;51.50;;;;;;6120735;23;98451;-73
2022/03/24 09:43:41;;;;;;;41.35;28.73;;;16.10;51.80;;;;;;6120120;23;99400;-72
2022/03/24 09:46:09;;;;;;;42.70;29.02;;;16.10;52.90;;;;;;6118002;23;108072;-72
2022/03/24 09:48:36;;;;;;;41.38;29.83;;;16.10;53.00;;;;;;6120437;22;98442;-73
2022/03/24 09:51:03;;;;;;;38.80;27.60;;;16.20;52.90;;;;;;6120048;22;98472;-72
2022/03/24 09:53:30;;;;;;;39.90;29.20;;;16.30;53.60;;;;;;6118737;23;99201;-73
2022/03/24 09:55:57;;;;;;;38.60;28.48;;;16.30;52.40;;;;;;6120449;23;98967;-72
2022/03/24 09:58:26;;;;;;;35.50;27.40;;;16.30;52.00;;;;;;6119150;23;98547;-72
2022/03/24 10:00:53;;;;;;;40.90;27.70;;;16.40;52.40;;;;;;6120430;22;98466;-73
2022/03/24 10:03:22;;;;;;;40.38;28.42;;;16.40;51.60;;;;;;6117836;23;100108;-73
2022/03/24 10:05:58;;;;;;;39.28;26.70;;;16.40;51.10;;;;;;6119782;23;99766;-73
2022/03/24 10:08:27;;;;;;;38.45;26.30;;;16.50;51.00;;;;;;6119102;23;98544;-73
2022/03/24 10:10:59;;;;;;;43.97;27.50;;;16.40;50.40;;;;;;6120231;22;98411;-73
2022/03/24 10:13:46;;;;;;;34.85;27.50;;;16.50;50.60;;;;;;6119958;22;99094;-73
2022/03/24 10:16:33;;;;;;;37.75;27.88;;;16.50;50.50;;;;;;6118519;23;100832;-73
2022/03/24 10:19:07;;;;;;;40.13;28.27;;;16.50;50.90;;;;;;6120177;23;98502;-73
2022/03/24 10:21:37;;;;;;;38.15;28.45;;;16.50;51.10;;;;;;6119583;23;98323;-73
2022/03/24 10:24:16;;;;;;;39.75;27.15;;;16.60;51.00;;;;;;6119720;22;99003;-73
2022/03/24 10:27:00;;;;;;;40.85;28.83;;;16.70;50.70;;;;;;6120363;23;99096;-73
2022/03/24 10:29:29;;;;;;;41.58;28.63;;;16.80;50.50;;;;;;6121290;23;99257;-73
2022/03/24 10:32:03;;;;;;;38.40;29.45;;;16.70;51.10;;;;;;6121376;22;98432;-73
2022/03/24 10:34:31;;;;;;;;;;;16.90;50.20;;;;;;6121897;22;99304;-73
2022/03/24 10:37:03;;;;;;;34.50;25.50;;;16.90;49.80;;;;;;6121574;23;101119;-73
2022/03/24 10:39:30;;;;;;;36.05;28.48;;;17.00;49.60;;;;;;6120471;23;98872;-73
2022/03/24 10:42:14;;;;;;;34.53;27.02;;;17.00;49.80;;;;;;6121366;22;98508;-73
2022/03/24 10:45:11;;;;;;;39.30;27.52;;;17.10;49.00;;;;;;6119841;23;99853;-73
2022/03/24 10:47:52;;;;;;;38.90;27.27;;;17.20;49.20;;;;;;6095609;23;100094;-73
2022/03/24 10:50:34;;;;;;;36.58;26.63;;;17.30;48.60;;;;;;6120805;22;98400;-73
2022/03/24 10:53:22;;;;;;;30.95;24.88;;;17.40;47.50;;;;;;6119851;23;98479;-73
2022/03/24 10:55:59;;;;;;;35.55;26.65;;;17.40;46.10;;;;;;6119200;23;100937;-73
2022/03/24 10:58:38;;;;;;;38.42;25.70;;;17.50;46.20;;;;;;6119518;23;102413;-73
2022/03/24 11:01:14;;;;;;;37.00;26.55;;;17.60;45.10;;;;;;6121381;23;98447;-73
2022/03/24 11:03:43;;;;;;;39.95;28.67;;;17.70;44.60;;;;;;6120132;23;98462;-73
2022/03/24 11:06:17;;;;;;;36.70;26.58;;;17.70;46.20;;;;;;6119042;23;100448;-73
2022/03/24 11:08:51;;;;;;;34.97;23.80;;;17.80;45.70;;;;;;6121330;22;98952;-73
2022/03/24 11:11:19;;;;;;;28.33;20.92;;;17.90;44.00;;;;;;6121255;22;98899;-73
2022/03/24 11:13:49;;;;;;;28.20;23.13;;;18.00;40.70;;;;;;6121998;23;97754;-73
2022/03/24 11:16:20;;;;;;;30.63;23.65;;;18.00;40.00;;;;;;6120903;23;99048;-73
2022/03/24 11:18:49;;;;;;;32.60;23.67;;;18.10;40.40;;;;;;6121198;22;99044;-73
2022/03/24 11:21:58;;;;;;;34.33;23.98;;;18.20;41.30;;;;;;6120457;22;99099;-73
2022/03/24 11:24:25;;;;;;;34.60;24.90;;;18.30;40.40;;;;;;6120015;23;98466;-73
2022/03/24 11:26:52;;;;;;;27.23;20.63;;;18.20;41.40;;;;;;6121096;22;99290;-73
2022/03/24 11:29:20;;;;;;;29.65;22.08;;;18.30;39.20;;;;;;6120780;22;99000;-73
2022/03/24 11:31:47;;;;;;;27.52;19.88;;;18.40;37.80;;;;;;6121459;22;98421;-73
2022/03/24 11:34:14;;;;;;;31.02;22.42;;;18.40;37.40;;;;;;6119371;23;98698;-73
2022/03/24 11:36:41;;;;;;;25.65;21.30;;;18.50;38.30;;;;;;6119522;23;99244;-73
2022/03/24 11:39:11;;;;;;;28.55;20.58;;;18.60;38.70;;;;;;6119517;23;99212;-73
2022/03/24 11:41:58;;;;;;;30.88;20.88;;;18.60;37.20;;;;;;6121454;22;98403;-73
2022/03/24 11:44:41;;;;;;;30.27;19.25;;;18.70;36.40;;;;;;6121846;22;98853;-73
2022/03/24 11:47:15;;;;;;;24.67;18.75;;;18.60;36.00;;;;;;6120321;22;99867;-73
2022/03/24 11:49:42;;;;;;;29.50;19.02;;;18.70;35.70;;;;;;6121127;23;99643;-73
2022/03/24 11:52:09;;;;;;;30.50;21.40;;;18.70;35.20;;;;;;6120085;23;98519;-73
2022/03/24 11:54:39;;;;;;;29.83;21.20;;;18.80;35.90;;;;;;6121309;23;98454;-73
2022/03/24 11:57:27;;;;;;;24.60;19.70;;;18.80;36.40;;;;;;6120684;22;99172;-73
2022/03/24 12:00:12;;;;;;;23.15;18.67;;;18.90;35.60;;;;;;6094443;23;101729;-73
2022/03/24 12:02:41;;;;;;;26.83;19.60;;;19.00;34.30;;;;;;6120833;22;98485;-73
2022/03/24 12:05:08;;;;;;;30.65;19.85;;;18.90;35.30;;;;;;6119597;23;97852;-73
2022/03/24 12:07:35;;;;;;;27.90;20.83;;;18.90;35.70;;;;;;6120762;23;99318;-73
2022/03/24 12:10:08;;;;;;;26.45;21.08;;;18.90;35.10;;;;;;6120592;22;99014;-73
2022/03/24 12:12:39;;;;;;;25.10;20.80;;;18.90;35.50;;;;;;6119378;23;99719;-73
2022/03/24 12:15:32;;;;;;;27.58;20.52;;;18.90;35.50;;;;;;6119340;23;98462;-73
2022/03/24 12:18:07;;;;;;;26.03;18.90;;;19.10;35.20;;;;;;6115571;23;99185;-73
2022/03/24 12:20:45;;;;;;;23.92;19.20;;;19.20;34.20;;;;;;6094194;23;101767;-73
2022/03/24 12:23:15;;;;;;;29.48;21.83;;;19.20;34.00;;;;;;6121312;22;98988;-73
2022/03/24 12:25:42;;;;;;;27.40;19.13;;;19.20;36.00;;;;;;6121324;22;98444;-73
2022/03/24 12:28:20;;;;;;;27.63;21.15;;;19.20;34.10;;;;;;6120565;23;99146;-73
2022/03/24 12:31:00;;;;;;;26.15;21.40;;;19.30;35.90;;;;;;6094961;23;101662;-73
2022/03/24 12:33:40;;;;;;;27.35;20.27;;;19.30;35.80;;;;;;6119503;23;98451;-73
2022/03/24 12:36:13;;;;;;;25.83;21.55;;;19.40;34.30;;;;;;6121109;22;98536;-73
2022/03/24 12:38:54;;;;;;;27.00;21.80;;;19.40;34.50;;;;;;6120292;23;100071;-73
2022/03/24 12:41:22;;;;;;;25.38;20.75;;;19.40;34.00;;;;;;6120286;23;99736;-73
2022/03/24 12:44:01;;;;;;;27.50;20.23;;;19.50;36.00;;;;;;6119154;23;98524;-73
2022/03/24 12:46:40;;;;;;;28.15;19.35;;;19.60;33.90;;;;;;6120805;22;98443;-73
2022/03/24 12:49:16;;;;;;;25.55;19.55;;;19.60;33.60;;;;;;6119833;22;99103;-73